Time,TemperatureF,DewpointF,PressureIn,WindDirection,WindDirectionDegrees,WindSpeedMPH,WindSpeedGustMPH,Humidity,HourlyPrecipIn,Conditions,Clouds,dailyrainin,SoftwareType,DateUTC
2013-05-12 00:02:00,50.0,38.0,-100.00,East,92,14.0,18.0,62,-99.99,,,-99.99,,2013-05-12 05:02:00,
2013-05-12 00:12:00,50.0,39.0,-100.00,East,92,11.0,14.0,65,-99.99,,,-99.99,,2013-05-12 05:12:00,
2013-05-12 00:22:00,50.0,37.0,-100.00,ESE,102,13.0,16.0,60,-99.99,,,-99.99,,2013-05-12 05:22:00,
2013-05-12 00:32:00,50.0,37.0,-100.00,ESE,110,11.0,12.0,61,-99.99,,,-99.99,,2013-05-12 05:32:00,
2013-05-12 00:42:00,50.0,36.0,-100.00,ESE,120,12.0,15.0,58,-99.99,,,-99.99,,2013-05-12 05:42:00,
2013-05-12 00:51:00,52.0,38.0,-100.00,SE,124,12.0,15.0,58,-99.99,,,-99.99,,2013-05-12 05:51:00,
2013-05-12 01:01:00,52.0,38.0,-100.00,SE,133,13.0,17.0,58,-99.99,,,-99.99,,2013-05-12 06:01:00,
2013-05-12 01:11:00,52.0,38.0,-100.00,SE,129,12.0,14.0,58,-99.99,,,-99.99,,2013-05-12 06:11:00,
2013-05-12 01:21:00,52.0,38.0,-100.00,SE,129,11.0,16.0,59,-99.99,,,-99.99,,2013-05-12 06:21:00,
2013-05-12 01:32:00,52.0,38.0,-100.00,SE,144,11.0,14.0,60,-99.99,,,-99.99,,2013-05-12 06:32:00,
2013-05-12 01:42:00,50.0,37.0,-100.00,SE,133,11.0,16.0,61,-99.99,,,-99.99,,2013-05-12 06:42:00,
2013-05-12 01:52:00,50.0,37.0,-100.00,SE,132,12.0,17.0,61,-99.99,,,-99.99,,2013-05-12 06:52:00,
2013-05-12 02:01:00,50.0,38.0,-100.00,SE,130,11.0,17.0,62,-99.99,,,-99.99,,2013-05-12 07:01:00,
2013-05-12 02:11:00,50.0,38.0,-100.00,ESE,120,11.0,12.0,63,-99.99,,,-99.99,,2013-05-12 07:11:00,
2013-05-12 02:21:00,50.0,38.0,-100.00,ESE,119,12.0,14.0,63,-99.99,,,-99.99,,2013-05-12 07:21:00,
2013-05-12 02:32:00,50.0,38.0,-100.00,ESE,118,12.0,17.0,63,-99.99,,,-99.99,,2013-05-12 07:32:00,
2013-05-12 02:42:00,50.0,38.0,-100.00,ESE,118,12.0,17.0,63,-99.99,,,-99.99,,2013-05-12 07:42:00,
2013-05-12 02:52:00,50.0,38.0,-100.00,ESE,108,13.0,16.0,63,-99.99,,,-99.99,,2013-05-12 07:52:00,
2013-05-12 03:02:00,50.0,38.0,-100.00,ESE,109,15.0,19.0,62,-99.99,,,-99.99,,2013-05-12 08:02:00,
2013-05-12 03:11:00,50.0,37.0,-100.00,ESE,111,18.0,20.0,61,-99.99,,,-99.99,,2013-05-12 08:11:00,
2013-05-12 03:21:00,50.0,38.0,-100.00,ESE,114,15.0,20.0,62,-99.99,,,-99.99,,2013-05-12 08:21:00,
2013-05-12 03:32:00,50.0,37.0,-100.00,ESE,113,15.0,19.0,61,-99.99,,,-99.99,,2013-05-12 08:32:00,
2013-05-12 03:41:00,50.0,38.0,-100.00,ESE,106,13.0,18.0,62,-99.99,,,-99.99,,2013-05-12 08:41:00,
2013-05-12 03:52:00,50.0,38.0,-100.00,ESE,110,11.0,16.0,62,-99.99,,,-99.99,,2013-05-12 08:52:00,
2013-05-12 04:01:00,50.0,38.0,-100.00,ESE,115,11.0,14.0,63,-99.99,,,-99.99,,2013-05-12 09:01:00,
2013-05-12 04:11:00,50.0,38.0,-100.00,ESE,111,12.0,15.0,63,-99.99,,,-99.99,,2013-05-12 09:11:00,
2013-05-12 04:21:00,50.0,38.0,-100.00,ESE,112,13.0,17.0,62,-99.99,,,-99.99,,2013-05-12 09:21:00,
2013-05-12 04:33:00,50.0,38.0,-100.00,ESE,115,13.0,17.0,62,-99.99,,,-99.99,,2013-05-12 09:33:00,
2013-05-12 04:42:00,50.0,38.0,-100.00,ESE,111,15.0,18.0,62,-99.99,,,-99.99,,2013-05-12 09:42:00,
2013-05-12 04:52:00,50.0,38.0,-100.00,ESE,111,13.0,20.0,63,-99.99,,,-99.99,,2013-05-12 09:52:00,
2013-05-12 05:03:00,50.0,38.0,-100.00,ESE,113,14.0,19.0,63,-99.99,,,-99.99,,2013-05-12 10:03:00,
2013-05-12 05:12:00,50.0,38.0,-100.00,ESE,118,15.0,18.0,62,-99.99,,,-99.99,,2013-05-12 10:12:00,
2013-05-12 05:22:00,50.0,38.0,-100.00,ESE,120,16.0,20.0,62,-99.99,,,-99.99,,2013-05-12 10:22:00,
2013-05-12 05:33:00,50.0,37.0,-100.00,ESE,123,15.0,19.0,61,-99.99,,,-99.99,,2013-05-12 10:33:00,
2013-05-12 05:42:00,50.0,37.0,-100.00,ESE,123,15.0,18.0,61,-99.99,,,-99.99,,2013-05-12 10:42:00,
2013-05-12 05:52:00,50.0,38.0,-100.00,ESE,123,15.0,18.0,62,-99.99,,,-99.99,,2013-05-12 10:52:00,
2013-05-12 06:02:00,48.0,36.0,-100.00,ESE,121,15.0,19.0,63,-99.99,,,-99.99,,2013-05-12 11:02:00,
2013-05-12 06:12:00,48.0,36.0,-100.00,SE,124,15.0,16.0,63,-99.99,,,-99.99,,2013-05-12 11:12:00,
2013-05-12 06:22:00,48.0,37.0,-100.00,ESE,123,14.0,18.0,64,-99.99,,,-99.99,,2013-05-12 11:22:00,
2013-05-12 06:32:00,48.0,37.0,-100.00,SE,126,15.0,18.0,64,-99.99,,,-99.99,,2013-05-12 11:32:00,
2013-05-12 06:42:00,48.0,37.0,-100.00,SE,126,15.0,18.0,64,-99.99,,,-99.99,,2013-05-12 11:42:00,
2013-05-12 06:52:00,48.0,37.0,-100.00,SE,127,15.0,20.0,65,-99.99,,,-99.99,,2013-05-12 11:52:00,
2013-05-12 07:01:00,48.0,37.0,-100.00,SE,127,15.0,20.0,65,-99.99,,,-99.99,,2013-05-12 12:01:00,
2013-05-12 07:11:00,48.0,37.0,-100.00,ESE,121,15.0,19.0,65,-99.99,,,-99.99,,2013-05-12 12:11:00,
2013-05-12 07:21:00,48.0,37.0,-100.00,SE,127,16.0,19.0,65,-99.99,,,-99.99,,2013-05-12 12:21:00,
2013-05-12 07:32:00,48.0,37.0,-100.00,SE,124,14.0,16.0,65,-99.99,,,-99.99,,2013-05-12 12:32:00,
2013-05-12 07:41:00,48.0,37.0,-100.00,SE,124,14.0,16.0,65,-99.99,,,-99.99,,2013-05-12 12:41:00,
2013-05-12 07:51:00,48.0,37.0,-100.00,ESE,118,16.0,20.0,64,-99.99,,,-99.99,,2013-05-12 12:51:00,
2013-05-12 08:01:00,50.0,38.0,-100.00,ESE,117,16.0,20.0,63,-99.99,,,-99.99,,2013-05-12 13:01:00,
2013-05-12 08:11:00,50.0,38.0,-100.00,ESE,120,17.0,20.0,62,-99.99,,,-99.99,,2013-05-12 13:11:00,
2013-05-12 08:21:00,50.0,38.0,-100.00,ESE,115,15.0,19.0,62,-99.99,,,-99.99,,2013-05-12 13:21:00,
2013-05-12 08:32:00,50.0,37.0,-100.00,ESE,114,15.0,19.0,61,-99.99,,,-99.99,,2013-05-12 13:32:00,
2013-05-12 08:42:00,50.0,37.0,-100.00,ESE,114,12.0,18.0,61,-99.99,,,-99.99,,2013-05-12 13:42:00,
2013-05-12 08:52:00,50.0,37.0,-100.00,ESE,117,14.0,18.0,60,-99.99,,,-99.99,,2013-05-12 13:52:00,
2013-05-12 09:01:00,50.0,37.0,-100.00,ESE,117,14.0,18.0,60,-99.99,,,-99.99,,2013-05-12 14:01:00,
2013-05-12 09:11:00,52.0,37.0,-100.00,ESE,112,15.0,19.0,57,-99.99,,,-99.99,,2013-05-12 14:11:00,
2013-05-12 09:21:00,54.0,38.0,-100.00,SE,128,13.0,22.0,56,-99.99,,,-99.99,,2013-05-12 14:21:00,
2013-05-12 09:32:00,52.0,37.0,-100.00,ESE,122,16.0,23.0,56,-99.99,,,-99.99,,2013-05-12 14:32:00,
2013-05-12 09:42:00,52.0,37.0,-100.00,SE,130,16.0,23.0,56,-99.99,,,-99.99,,2013-05-12 14:42:00,
2013-05-12 09:52:00,54.0,38.0,-100.00,SE,124,18.0,27.0,56,-99.99,,,-99.99,,2013-05-12 14:52:00,
2013-05-12 10:01:00,54.0,38.0,-100.00,SE,124,18.0,27.0,56,-99.99,,,-99.99,,2013-05-12 15:01:00,
2013-05-12 10:11:00,54.0,37.0,-100.00,ESE,122,17.0,28.0,54,-99.99,,,-99.99,,2013-05-12 15:11:00,
2013-05-12 10:21:00,54.0,36.0,-100.00,SE,129,16.0,26.0,52,-99.99,,,-99.99,,2013-05-12 15:21:00,
2013-05-12 10:34:00,54.0,35.0,-100.00,SE,131,18.0,28.0,50,-99.99,,,-99.99,,2013-05-12 15:34:00,
2013-05-12 10:42:00,54.0,36.0,-100.00,SE,137,18.0,27.0,52,-99.99,,,-99.99,,2013-05-12 15:42:00,
2013-05-12 10:52:00,54.0,36.0,-100.00,SE,141,16.0,25.0,51,-99.99,,,-99.99,,2013-05-12 15:52:00,
2013-05-12 11:02:00,54.0,36.0,-100.00,SE,141,16.0,25.0,51,-99.99,,,-99.99,,2013-05-12 16:02:00,
2013-05-12 11:12:00,54.0,36.0,-100.00,SE,135,17.0,19.0,52,-99.99,,,-99.99,,2013-05-12 16:12:00,
2013-05-12 11:23:00,54.0,35.0,-100.00,SE,142,16.0,30.0,49,-99.99,,,-99.99,,2013-05-12 16:23:00,
2013-05-12 11:33:00,54.0,35.0,-100.00,ESE,123,17.0,26.0,50,-99.99,,,-99.99,,2013-05-12 16:33:00,
2013-05-12 11:42:00,55.0,36.0,-100.00,SE,140,12.0,23.0,48,-99.99,,,-99.99,,2013-05-12 16:42:00,
2013-05-12 11:52:00,55.0,37.0,-100.00,SE,131,15.0,27.0,49,-99.99,,,-99.99,,2013-05-12 16:52:00,
2013-05-12 12:02:00,55.0,37.0,-100.00,ESE,122,16.0,27.0,49,-99.99,,,-99.99,,2013-05-12 17:02:00,
2013-05-12 12:12:00,55.0,34.0,-100.00,SE,125,22.0,29.0,45,-99.99,,,-99.99,,2013-05-12 17:12:00,
2013-05-12 12:22:00,55.0,36.0,-100.00,ESE,122,18.0,27.0,48,-99.99,,,-99.99,,2013-05-12 17:22:00,
2013-05-12 12:32:00,55.0,36.0,-100.00,ESE,118,14.0,20.0,47,-99.99,,,-99.99,,2013-05-12 17:32:00,
2013-05-12 12:42:00,55.0,34.0,-100.00,SE,139,17.0,28.0,44,-99.99,,,-99.99,,2013-05-12 17:42:00,
2013-05-12 12:52:00,57.0,34.0,-100.00,SE,128,15.0,27.0,42,-99.99,,,-99.99,,2013-05-12 17:52:00,
2013-05-12 13:01:00,55.0,34.0,-100.00,ESE,111,15.0,24.0,45,-99.99,,,-99.99,,2013-05-12 18:01:00,
2013-05-12 13:12:00,55.0,34.0,-100.00,ESE,119,15.0,20.0,44,-99.99,,,-99.99,,2013-05-12 18:12:00,
2013-05-12 13:22:00,57.0,35.0,-100.00,SE,135,16.0,26.0,43,-99.99,,,-99.99,,2013-05-12 18:22:00,
2013-05-12 13:32:00,57.0,35.0,-100.00,SE,130,18.0,29.0,43,-99.99,,,-99.99,,2013-05-12 18:32:00,
2013-05-12 13:42:00,55.0,35.0,-100.00,SE,130,16.0,26.0,46,-99.99,,,-99.99,,2013-05-12 18:42:00,
2013-05-12 13:51:00,57.0,35.0,-100.00,SE,129,15.0,25.0,44,-99.99,,,-99.99,,2013-05-12 18:51:00,
2013-05-12 14:01:00,57.0,35.0,-100.00,SE,129,15.0,25.0,44,-99.99,,,-99.99,,2013-05-12 19:01:00,
2013-05-12 14:11:00,57.0,35.0,-100.00,SE,129,13.0,23.0,43,-99.99,,,-99.99,,2013-05-12 19:11:00,
2013-05-12 14:21:00,57.0,34.0,-100.00,SE,130,13.0,23.0,42,-99.99,,,-99.99,,2013-05-12 19:21:00,
2013-05-12 14:32:00,57.0,32.0,-100.00,SE,138,9.0,21.0,39,-99.99,,,-99.99,,2013-05-12 19:32:00,
2013-05-12 14:42:00,57.0,33.0,-100.00,SE,126,16.0,24.0,40,-99.99,,,-99.99,,2013-05-12 19:42:00,
2013-05-12 14:52:00,57.0,32.0,-100.00,SE,142,8.0,17.0,39,-99.99,,,-99.99,,2013-05-12 19:52:00,
2013-05-12 15:02:00,57.0,33.0,-100.00,SE,144,14.0,23.0,40,-99.99,,,-99.99,,2013-05-12 20:02:00,
2013-05-12 15:11:00,55.0,32.0,-100.00,SE,145,12.0,23.0,41,-99.99,,,-99.99,,2013-05-12 20:11:00,
2013-05-12 15:21:00,57.0,31.0,-100.00,SSE,152,11.0,23.0,37,-99.99,,,-99.99,,2013-05-12 20:21:00,
2013-05-12 15:32:00,59.0,31.0,-100.00,SE,135,10.0,16.0,34,-99.99,,,-99.99,,2013-05-12 20:32:00,
2013-05-12 15:42:00,59.0,31.0,-100.00,SE,135,11.0,18.0,34,-99.99,,,-99.99,,2013-05-12 20:42:00,
2013-05-12 15:51:00,61.0,31.0,-100.00,SE,130,9.0,20.0,32,-99.99,,,-99.99,,2013-05-12 20:51:00,
2013-05-12 16:01:00,59.0,28.0,-100.00,SE,141,11.0,21.0,31,-99.99,,,-99.99,,2013-05-12 21:01:00,
2013-05-12 16:11:00,59.0,28.0,-100.00,SE,125,17.0,22.0,30,-99.99,,,-99.99,,2013-05-12 21:11:00,
2013-05-12 16:21:00,61.0,27.0,-100.00,SSE,158,11.0,16.0,28,-99.99,,,-99.99,,2013-05-12 21:21:00,
2013-05-12 16:33:00,61.0,28.0,-100.00,ESE,114,12.0,20.0,29,-99.99,,,-99.99,,2013-05-12 21:33:00,
2013-05-12 16:42:00,63.0,28.0,-100.00,SE,138,10.0,20.0,27,-99.99,,,-99.99,,2013-05-12 21:42:00,
2013-05-12 16:53:00,61.0,27.0,-100.00,SE,146,6.0,14.0,28,-99.99,,,-99.99,,2013-05-12 21:53:00,
2013-05-12 17:02:00,61.0,27.0,-100.00,SE,146,6.0,14.0,28,-99.99,,,-99.99,,2013-05-12 22:02:00,
2013-05-12 17:12:00,61.0,26.0,-100.00,ESE,119,9.0,19.0,26,-99.99,,,-99.99,,2013-05-12 22:12:00,
2013-05-12 17:23:00,61.0,27.0,-100.00,SSE,154,9.0,18.0,27,-99.99,,,-99.99,,2013-05-12 22:23:00,
2013-05-12 17:33:00,61.0,27.0,-100.00,ESE,118,12.0,22.0,27,-99.99,,,-99.99,,2013-05-12 22:33:00,
2013-05-12 17:42:00,63.0,28.0,-100.00,SSE,147,9.0,18.0,27,-99.99,,,-99.99,,2013-05-12 22:42:00,
2013-05-12 17:52:00,63.0,26.0,-100.00,SE,130,9.0,17.0,25,-99.99,,,-99.99,,2013-05-12 22:52:00,
2013-05-12 18:02:00,61.0,27.0,-100.00,SE,126,12.0,18.0,27,-99.99,,,-99.99,,2013-05-12 23:02:00,
2013-05-12 18:12:00,63.0,28.0,-100.00,SSE,166,6.0,20.0,27,-99.99,,,-99.99,,2013-05-12 23:12:00,
2013-05-12 18:22:00,61.0,28.0,-100.00,ESE,121,10.0,16.0,29,-99.99,,,-99.99,,2013-05-12 23:22:00,
2013-05-12 18:32:00,61.0,28.0,-100.00,SE,143,7.0,13.0,29,-99.99,,,-99.99,,2013-05-12 23:32:00,
2013-05-12 18:42:00,61.0,28.0,-100.00,SSE,147,14.0,24.0,29,-99.99,,,-99.99,,2013-05-12 23:42:00,
2013-05-12 18:52:00,59.0,28.0,-100.00,SSE,151,11.0,17.0,31,-99.99,,,-99.99,,2013-05-12 23:52:00,
2013-05-12 19:01:00,59.0,28.0,-100.00,SE,124,11.0,19.0,31,-99.99,,,-99.99,,2013-05-13 00:01:00,
2013-05-12 19:11:00,59.0,29.0,-100.00,SE,125,15.0,21.0,32,-99.99,,,-99.99,,2013-05-13 00:11:00,
2013-05-12 19:21:00,59.0,31.0,-100.00,ESE,113,17.0,22.0,34,-99.99,,,-99.99,,2013-05-13 00:21:00,
2013-05-12 19:32:00,59.0,31.0,-100.00,SE,143,9.0,14.0,34,-99.99,,,-99.99,,2013-05-13 00:32:00,
2013-05-12 19:42:00,59.0,31.0,-100.00,SE,143,9.0,14.0,34,-99.99,,,-99.99,,2013-05-13 00:42:00,
2013-05-12 19:51:00,57.0,29.0,-100.00,ESE,113,15.0,20.0,34,-99.99,,,-99.99,,2013-05-13 00:51:00,
2013-05-12 20:01:00,57.0,29.0,-100.00,ESE,108,13.0,18.0,34,-99.99,,,-99.99,,2013-05-13 01:01:00,
2013-05-12 20:11:00,57.0,29.0,-100.00,ESE,108,13.0,18.0,34,-99.99,,,-99.99,,2013-05-13 01:11:00,
2013-05-12 20:22:00,57.0,28.0,-100.00,ESE,117,11.0,16.0,33,-99.99,,,-99.99,,2013-05-13 01:22:00,
2013-05-12 20:31:00,57.0,29.0,-100.00,ESE,117,12.0,19.0,34,-99.99,,,-99.99,,2013-05-13 01:31:00,
2013-05-12 20:42:00,57.0,30.0,-100.00,ESE,112,14.0,20.0,35,-99.99,,,-99.99,,2013-05-13 01:42:00,
2013-05-12 20:52:00,57.0,32.0,-100.00,SE,130,13.0,20.0,38,-99.99,,,-99.99,,2013-05-13 01:52:00,
2013-05-12 21:01:00,57.0,32.0,-100.00,SE,125,14.0,19.0,39,-99.99,,,-99.99,,2013-05-13 02:01:00,
2013-05-12 21:11:00,55.0,31.0,-100.00,ESE,121,16.0,19.0,39,-99.99,,,-99.99,,2013-05-13 02:11:00,
2013-05-12 21:21:00,55.0,31.0,-100.00,ESE,110,14.0,18.0,40,-99.99,,,-99.99,,2013-05-13 02:21:00,
2013-05-12 21:32:00,55.0,31.0,-100.00,ESE,114,13.0,17.0,40,-99.99,,,-99.99,,2013-05-13 02:32:00,
2013-05-12 21:41:00,55.0,32.0,-100.00,ESE,114,15.0,19.0,41,-99.99,,,-99.99,,2013-05-13 02:41:00,
2013-05-12 21:51:00,55.0,32.0,-100.00,ESE,123,15.0,21.0,41,-99.99,,,-99.99,,2013-05-13 02:51:00,
2013-05-12 22:02:00,55.0,32.0,-100.00,ESE,123,15.0,21.0,41,-99.99,,,-99.99,,2013-05-13 03:02:00,
2013-05-12 22:11:00,55.0,33.0,-100.00,SE,132,13.0,19.0,43,-99.99,,,-99.99,,2013-05-13 03:11:00,
2013-05-12 22:21:00,54.0,32.0,-100.00,SE,129,13.0,18.0,44,-99.99,,,-99.99,,2013-05-13 03:21:00,
2013-05-12 22:32:00,54.0,33.0,-100.00,SE,125,13.0,16.0,45,-99.99,,,-99.99,,2013-05-13 03:32:00,
2013-05-12 22:42:00,54.0,33.0,-100.00,ESE,119,14.0,17.0,46,-99.99,,,-99.99,,2013-05-13 03:42:00,
2013-05-12 22:52:00,54.0,33.0,-100.00,SE,129,13.0,17.0,46,-99.99,,,-99.99,,2013-05-13 03:52:00,
2013-05-12 23:02:00,54.0,34.0,-100.00,SE,131,11.0,16.0,47,-99.99,,,-99.99,,2013-05-13 04:02:00,
2013-05-12 23:12:00,54.0,34.0,-100.00,SE,132,12.0,12.0,47,-99.99,,,-99.99,,2013-05-13 04:12:00,
2013-05-12 23:23:00,54.0,34.0,-100.00,SE,137,12.0,15.0,48,-99.99,,,-99.99,,2013-05-13 04:23:00,
2013-05-12 23:32:00,54.0,35.0,-100.00,SE,133,13.0,17.0,49,-99.99,,,-99.99,,2013-05-13 04:32:00,
2013-05-12 23:42:00,54.0,35.0,-100.00,SE,141,13.0,19.0,49,-99.99,,,-99.99,,2013-05-13 04:42:00,
2013-05-12 23:52:00,52.0,34.0,-100.00,SSE,149,7.0,13.0,50,-99.99,,,-99.99,,2013-05-13 04:52:00,